Time;durP1;ratioP1;P1;durP2;ratioP2;P2;SDS_P1;SDS_P2;PMS_P1;PMS_P2;Temp;Humidity;BMP_temperature;BMP_pressure;BME280_temperature;BME280_humidity;BME280_pressure;Samples;Min_cycle;Max_cycle;Signal;HPM_P1;HPM_P2
2021/07/09 00:02:18;;;;;;;1.25;0.70;;;;;;;12.41;100.00;97154.09;5033400;28;20049;-63
2021/07/09 00:04:44;;;;;;;0.70;0.50;;;;;;;12.49;100.00;97157.75;5028828;28;20130;-63
2021/07/09 00:07:09;;;;;;;2.05;0.50;;;;;;;12.62;100.00;97164.63;5045691;28;20043;-65
2021/07/09 00:09:35;;;;;;;1.80;0.85;;;;;;;12.66;100.00;97167.41;5056146;28;20048;-63
2021/07/09 00:12:01;;;;;;;0.70;0.47;;;;;;;12.78;100.00;97164.47;5051464;28;20192;-63
2021/07/09 00:14:30;;;;;;;0.70;0.40;;;;;;;12.85;100.00;97164.59;5046855;28;20045;-70
2021/07/09 00:16:56;;;;;;;1.65;0.80;;;;;;;12.54;100.00;97168.44;5054276;28;20049;-63
2021/07/09 00:19:22;;;;;;;1.85;0.75;;;;;;;12.51;100.00;97169.94;5039517;28;20943;-63
2021/07/09 00:21:48;;;;;;;1.13;0.40;;;;;;;12.64;100.00;97178.81;5042823;28;20055;-63
2021/07/09 00:24:14;;;;;;;2.00;1.10;;;;;;;12.63;100.00;97169.75;5039041;28;20041;-63
2021/07/09 00:26:40;;;;;;;1.30;0.60;;;;;;;12.68;100.00;97176.91;5043463;28;20037;-63
2021/07/09 00:29:06;;;;;;;1.13;0.77;;;;;;;12.67;100.00;97169.03;5038718;28;20051;-62
2021/07/09 00:31:32;;;;;;;1.30;0.70;;;;;;;12.70;100.00;97166.31;5036119;28;20722;-64
2021/07/09 00:34:00;;;;;;;0.90;0.70;;;;;;;12.61;100.00;97169.31;5031834;28;20130;-64
2021/07/09 00:36:26;;;;;;;2.33;0.65;;;;;;;12.66;100.00;97165.50;5029984;28;20037;-62
2021/07/09 00:38:52;;;;;;;3.53;0.65;;;;;;;12.67;100.00;97164.31;5034421;28;20068;-63
2021/07/09 00:41:18;;;;;;;3.28;0.52;;;;;;;12.65;100.00;97163.88;5031853;28;20049;-64
2021/07/09 00:43:44;;;;;;;1.10;0.60;;;;;;;12.66;100.00;97160.00;5052874;28;20139;-62
2021/07/09 00:46:09;;;;;;;1.90;0.70;;;;;;;12.49;100.00;97160.50;5053349;28;20037;-63
2021/07/09 00:48:35;;;;;;;1.17;0.60;;;;;;;12.42;100.00;97158.41;5049041;28;20041;-64
2021/07/09 00:51:05;;;;;;;1.15;0.50;;;;;;;12.46;100.00;97159.28;5047123;28;20363;-64
2021/07/09 00:53:31;;;;;;;0.95;0.60;;;;;;;12.48;100.00;97154.22;5034530;28;20038;-63
2021/07/09 00:55:57;;;;;;;1.20;0.50;;;;;;;12.49;100.00;97158.53;5033891;28;20052;-63
2021/07/09 00:58:23;;;;;;;1.52;0.60;;;;;;;12.52;100.00;97163.28;5031337;28;20479;-64
2021/07/09 01:00:48;;;;;;;1.58;0.70;;;;;;;12.57;100.00;97162.22;5026307;28;20956;-63
2021/07/09 01:03:15;;;;;;;1.33;0.65;;;;;;;12.53;100.00;97159.41;5016527;28;20087;-63
2021/07/09 01:05:40;;;;;;;1.67;0.50;;;;;;;12.55;100.00;97165.31;5022683;28;20479;-64
2021/07/09 01:08:06;;;;;;;2.05;0.65;;;;;;;12.54;100.00;97169.22;5017893;28;20075;-64
2021/07/09 01:10:32;;;;;;;0.95;0.45;;;;;;;12.67;100.00;97169.03;5022903;28;20486;-64
2021/07/09 01:12:57;;;;;;;0.40;0.40;;;;;;;12.79;100.00;97171.56;5022848;28;20125;-64
2021/07/09 01:15:23;;;;;;;1.48;0.60;;;;;;;12.85;100.00;97172.03;5015803;28;20542;-64
2021/07/09 01:17:49;;;;;;;1.83;0.50;;;;;;;12.82;100.00;97171.63;5011181;28;20045;-64
2021/07/09 01:20:17;;;;;;;1.17;0.40;;;;;;;12.85;100.00;97172.81;5015782;28;20038;-64
2021/07/09 01:22:44;;;;;;;0.75;0.45;;;;;;;12.87;100.00;97170.50;5022895;28;20052;-64
2021/07/09 01:25:13;;;;;;;0.63;0.43;;;;;;;12.89;100.00;97176.44;5019928;28;20051;-64
2021/07/09 01:27:41;;;;;;;1.65;0.98;;;;;;;12.91;100.00;97176.03;5030975;28;20038;-64
2021/07/09 01:30:09;;;;;;;1.02;0.60;;;;;;;12.80;100.00;97178.63;5018041;28;20033;-63
2021/07/09 01:32:34;;;;;;;2.95;1.55;;;;;;;12.83;100.00;97177.91;5031703;28;20102;-63
2021/07/09 01:35:00;;;;;;;1.83;0.77;;;;;;;12.72;100.00;97175.00;5042453;28;20501;-62
2021/07/09 01:37:25;;;;;;;2.85;1.85;;;;;;;12.80;100.00;97173.13;5037304;28;20547;-63
2021/07/09 01:39:51;;;;;;;0.60;0.50;;;;;;;12.73;100.00;97178.53;5040679;28;20050;-64
2021/07/09 01:42:16;;;;;;;1.13;0.50;;;;;;;12.81;100.00;97183.75;5042556;28;20063;-64
2021/07/09 01:44:44;;;;;;;0.65;0.50;;;;;;;12.80;100.00;97186.88;5061172;28;20506;-64
2021/07/09 01:47:10;;;;;;;0.60;0.50;;;;;;;12.87;100.00;97181.50;5056407;28;20061;-64
2021/07/09 01:49:53;;;;;;;1.17;0.68;;;;;;;12.87;100.00;97186.22;5044540;28;20123;-65
2021/07/09 01:52:19;;;;;;;0.68;0.68;;;;;;;12.83;100.00;97183.41;5020732;28;20052;-66
2021/07/09 01:54:45;;;;;;;1.60;0.40;;;;;;;12.78;100.00;97190.03;5030638;28;20047;-63
2021/07/09 01:57:11;;;;;;;1.80;0.63;;;;;;;12.87;100.00;97181.50;5032765;28;20433;-65
2021/07/09 01:59:38;;;;;;;2.08;0.60;;;;;;;12.82;100.00;97177.13;5020740;28;20806;-65
2021/07/09 02:02:04;;;;;;;1.63;0.82;;;;;;;12.87;100.00;97183.47;5016367;28;20091;-62
2021/07/09 02:04:29;;;;;;;3.80;0.80;;;;;;;12.81;100.00;97181.03;5020808;28;20041;-63
2021/07/09 02:06:54;;;;;;;0.75;0.50;;;;;;;12.80;100.00;97181.38;5021511;28;20045;-63
2021/07/09 02:09:20;;;;;;;0.70;0.52;;;;;;;12.89;100.00;97181.13;5017306;28;20045;-65
2021/07/09 02:11:45;;;;;;;0.85;0.70;;;;;;;12.88;100.00;97187.81;5023079;28;20052;-63
2021/07/09 02:14:11;;;;;;;1.20;0.70;;;;;;;12.87;100.00;97183.47;5016778;28;20037;-63
2021/07/09 02:16:36;;;;;;;1.00;0.70;;;;;;;12.88;100.00;97185.06;5021294;28;20069;-64
2021/07/09 02:19:02;;;;;;;0.85;0.60;;;;;;;13.06;100.00;97182.56;5036338;28;20094;-63
2021/07/09 02:21:27;;;;;;;0.85;0.50;;;;;;;13.09;100.00;97182.63;5045637;28;20132;-65
2021/07/09 02:23:53;;;;;;;1.08;0.63;;;;;;;13.17;100.00;97180.75;5008363;28;20084;-65
2021/07/09 02:26:19;;;;;;;1.10;0.60;;;;;;;13.32;100.00;97184.50;4995874;28;20522;-66
2021/07/09 02:28:44;;;;;;;0.75;0.55;;;;;;;13.24;100.00;97180.84;5001635;28;20038;-65
2021/07/09 02:31:10;;;;;;;3.20;0.60;;;;;;;13.07;100.00;97179.44;4996371;28;20034;-66
2021/07/09 02:33:35;;;;;;;0.82;0.40;;;;;;;13.11;100.00;97176.75;5000239;28;20048;-64
2021/07/09 02:36:01;;;;;;;1.88;0.70;;;;;;;13.12;100.00;97181.06;5001666;28;20423;-65
2021/07/09 02:38:26;;;;;;;0.73;0.55;;;;;;;13.11;100.00;97180.28;4996570;28;20564;-64
2021/07/09 02:40:52;;;;;;;0.80;0.60;;;;;;;13.14;100.00;97181.50;5020086;23;20081;-62
2021/07/09 02:43:17;;;;;;;2.05;0.63;;;;;;;13.18;100.00;97183.13;4945682;28;20055;-60
2021/07/09 02:45:42;;;;;;;1.52;0.57;;;;;;;13.27;100.00;97185.63;4961125;28;20046;-63
2021/07/09 02:48:08;;;;;;;0.77;0.60;;;;;;;13.21;100.00;97184.34;4949347;28;20134;-64
2021/07/09 02:50:33;;;;;;;0.93;0.70;;;;;;;13.13;100.00;97185.41;4957639;28;20081;-64
2021/07/09 02:52:58;;;;;;;0.90;0.60;;;;;;;13.12;100.00;97176.34;4963158;28;20395;-62
2021/07/09 02:55:24;;;;;;;1.88;0.70;;;;;;;13.18;100.00;97188.63;4949861;28;20105;-63
2021/07/09 02:57:50;;;;;;;1.20;0.80;;;;;;;13.18;100.00;97190.56;4960948;28;20069;-65
2021/07/09 03:00:17;;;;;;;1.15;0.77;;;;;;;13.27;100.00;97188.38;4956579;28;20043;-62
2021/07/09 03:02:43;;;;;;;0.68;0.63;;;;;;;13.41;100.00;97179.53;4963442;28;20039;-62
2021/07/09 03:05:10;;;;;;;1.38;0.70;;;;;;;13.51;100.00;97180.84;4957333;28;20038;-60
2021/07/09 03:07:36;;;;;;;1.40;0.80;;;;;;;13.51;100.00;97189.09;4955730;28;20051;-61
2021/07/09 03:10:02;;;;;;;4.00;0.70;;;;;;;13.51;100.00;97183.59;4949932;28;20118;-62
2021/07/09 03:12:29;;;;;;;2.65;0.90;;;;;;;13.47;100.00;97193.75;4948244;28;20046;-61
2021/07/09 03:14:55;;;;;;;1.67;0.90;;;;;;;13.52;100.00;97185.16;4957842;28;20581;-64
2021/07/09 03:17:20;;;;;;;2.25;0.73;;;;;;;13.49;100.00;97185.94;4955148;28;20050;-62
2021/07/09 03:19:46;;;;;;;2.55;0.65;;;;;;;13.45;100.00;97188.63;4963026;28;20618;-63
2021/07/09 03:22:11;;;;;;;1.23;0.80;;;;;;;13.42;100.00;97197.63;4948043;28;20043;-64
2021/07/09 03:24:37;;;;;;;2.05;0.90;;;;;;;13.35;100.00;97194.78;4956536;28;20147;-62
2021/07/09 03:27:04;;;;;;;1.20;0.80;;;;;;;13.34;100.00;97190.44;4951189;28;20131;-60
2021/07/09 03:29:29;;;;;;;1.27;1.00;;;;;;;13.38;100.00;97194.03;4960963;28;20066;-62
2021/07/09 03:31:55;;;;;;;1.52;1.20;;;;;;;13.29;100.00;97196.22;4961343;28;20039;-63
2021/07/09 03:34:20;;;;;;;1.50;1.10;;;;;;;13.16;100.00;97188.22;4956991;28;20423;-60
2021/07/09 03:36:48;;;;;;;3.03;1.70;;;;;;;13.12;100.00;97194.81;4960719;28;20049;-61
2021/07/09 03:39:14;;;;;;;2.85;1.70;;;;;;;13.13;100.00;97196.41;4947693;28;20046;-62
2021/07/09 03:41:40;;;;;;;2.72;1.55;;;;;;;13.13;100.00;97190.91;4961246;28;20062;-62
2021/07/09 03:44:07;;;;;;;3.53;1.80;;;;;;;13.12;100.00;97192.84;4956253;28;20042;-62
2021/07/09 03:46:33;;;;;;;4.78;1.98;;;;;;;13.14;100.00;97193.31;4953835;28;20458;-62
2021/07/09 03:48:59;;;;;;;3.58;1.98;;;;;;;13.14;100.00;97189.75;4961909;28;20043;-62
2021/07/09 03:51:24;;;;;;;2.75;1.42;;;;;;;13.19;100.00;97195.72;4956059;28;20133;-58
2021/07/09 03:53:54;;;;;;;3.05;1.88;;;;;;;13.22;100.00;97188.69;4961440;28;20046;-62
2021/07/09 03:56:21;;;;;;;3.42;2.03;;;;;;;13.29;100.00;97197.03;4947914;28;20125;-60
2021/07/09 03:58:47;;;;;;;3.00;1.85;;;;;;;13.25;100.00;97189.88;4961964;28;20396;-61
2021/07/09 04:01:12;;;;;;;3.63;1.90;;;;;;;13.31;100.00;97189.22;4952298;28;20057;-62
2021/07/09 04:03:38;;;;;;;3.00;1.73;;;;;;;13.30;100.00;97193.09;4960880;28;20404;-64
2021/07/09 04:06:03;;;;;;;2.97;2.10;;;;;;;13.32;100.00;97190.78;4957721;28;20042;-65
2021/07/09 04:08:29;;;;;;;2.95;1.90;;;;;;;13.33;100.00;97191.63;4957862;28;20047;-62
2021/07/09 04:10:54;;;;;;;4.28;2.03;;;;;;;13.28;100.00;97195.44;4958434;28;20039;-61
2021/07/09 04:13:20;;;;;;;4.38;1.85;;;;;;;13.18;100.00;97199.63;4958805;28;20126;-63
2021/07/09 04:15:45;;;;;;;4.03;2.22;;;;;;;13.31;100.00;97199.44;4962930;28;20039;-62
2021/07/09 04:18:11;;;;;;;12.77;2.70;;;;;;;13.34;100.00;97205.00;4955815;28;20054;-61
2021/07/09 04:20:36;;;;;;;3.38;2.35;;;;;;;13.34;100.00;97204.19;4964517;28;20121;-63
2021/07/09 04:23:03;;;;;;;2.50;2.05;;;;;;;13.29;100.00;97213.53;4962907;28;20683;-66
2021/07/09 04:25:28;;;;;;;3.53;2.22;;;;;;;13.27;100.00;97213.13;4969982;28;20042;-62
2021/07/09 04:27:54;;;;;;;5.90;2.42;;;;;;;13.24;100.00;97204.81;4964162;28;20053;-62
2021/07/09 04:30:20;;;;;;;3.15;2.35;;;;;;;13.29;100.00;97212.72;4958261;28;20495;-62
2021/07/09 04:32:45;;;;;;;5.10;2.30;;;;;;;13.34;100.00;97213.25;4963245;28;20041;-62
2021/07/09 04:35:12;;;;;;;4.40;2.28;;;;;;;13.27;100.00;97217.81;4950961;28;20051;-63
2021/07/09 04:37:37;;;;;;;5.75;2.67;;;;;;;13.41;100.00;97214.50;4950950;28;20054;-63
2021/07/09 04:40:05;;;;;;;5.57;2.90;;;;;;;13.53;100.00;97208.78;4957473;28;20043;-64
2021/07/09 04:42:30;;;;;;;3.53;2.50;;;;;;;13.51;100.00;97216.63;4962244;28;20053;-64
2021/07/09 04:44:56;;;;;;;4.75;2.50;;;;;;;13.45;100.00;97216.16;4963669;28;20035;-62
2021/07/09 04:47:22;;;;;;;4.63;2.90;;;;;;;13.41;100.00;97220.00;4958284;28;20502;-62
2021/07/09 04:49:47;;;;;;;4.90;2.60;;;;;;;13.39;100.00;97229.41;4954876;28;20046;-62
2021/07/09 04:52:12;;;;;;;5.47;2.72;;;;;;;13.52;100.00;97229.19;4950163;28;20059;-62
2021/07/09 04:54:38;;;;;;;4.95;2.58;;;;;;;13.63;100.00;97218.31;4962185;28;20186;-61
2021/07/09 04:57:03;;;;;;;3.97;2.58;;;;;;;13.56;100.00;97219.81;4960224;28;20046;-63
2021/07/09 04:59:29;;;;;;;4.88;2.55;;;;;;;13.66;100.00;97214.81;4959272;28;20051;-63
2021/07/09 05:01:54;;;;;;;5.78;2.95;;;;;;;13.76;100.00;97219.69;4949348;28;20458;-63
2021/07/09 05:04:19;;;;;;;5.70;2.90;;;;;;;13.73;100.00;97214.91;4957553;28;20047;-61
2021/07/09 05:06:45;;;;;;;4.00;2.30;;;;;;;13.78;100.00;97211.84;4963942;28;20043;-61
2021/07/09 05:09:10;;;;;;;3.97;2.67;;;;;;;13.90;100.00;97214.34;4955825;28;20054;-62
2021/07/09 05:11:38;;;;;;;4.43;2.78;;;;;;;13.70;100.00;97213.72;4963103;28;20043;-62
2021/07/09 05:14:04;;;;;;;4.57;2.90;;;;;;;13.76;100.00;97222.44;4958685;28;20038;-63
2021/07/09 05:16:30;;;;;;;5.15;2.75;;;;;;;13.79;100.00;97226.38;4955882;28;20559;-63
2021/07/09 05:18:56;;;;;;;4.40;2.72;;;;;;;13.86;100.00;97220.97;4963412;28;20058;-62
2021/07/09 05:21:22;;;;;;;5.15;2.60;;;;;;;14.03;100.00;97220.38;4957917;28;20739;-61
2021/07/09 05:23:48;;;;;;;6.40;2.80;;;;;;;14.15;100.00;97227.56;4965879;28;20050;-62
2021/07/09 05:26:15;;;;;;;3.63;2.80;;;;;;;14.20;100.00;97234.72;4957636;28;20433;-60
2021/07/09 05:28:40;;;;;;;9.10;3.72;;;;;;;14.05;100.00;97237.31;4958838;28;20207;-60
2021/07/09 05:31:06;;;;;;;5.90;3.30;;;;;;;14.11;100.00;97235.00;4953446;28;20574;-61
2021/07/09 05:33:31;;;;;;;5.47;3.22;;;;;;;14.13;100.00;97233.50;4960652;28;20449;-61
2021/07/09 05:35:57;;;;;;;5.88;2.83;;;;;;;14.15;100.00;97241.34;4957111;28;20732;-62
2021/07/09 05:38:22;;;;;;;4.47;2.70;;;;;;;14.04;100.00;97241.22;4950115;28;20966;-60
2021/07/09 05:40:48;;;;;;;6.95;3.20;;;;;;;14.06;100.00;97240.84;4962821;28;20091;-61
2021/07/09 05:43:13;;;;;;;4.03;3.15;;;;;;;14.03;100.00;97247.13;4957566;28;20070;-60
2021/07/09 05:45:39;;;;;;;6.03;3.00;;;;;;;14.10;100.00;97247.22;4962909;28;20043;-61
2021/07/09 05:48:05;;;;;;;7.20;2.75;;;;;;;14.00;100.00;97245.13;4950718;28;20074;-62
2021/07/09 05:50:30;;;;;;;8.63;3.72;;;;;;;13.98;100.00;97248.25;4962083;28;20562;-62
2021/07/09 05:52:56;;;;;;;4.68;2.90;;;;;;;14.06;100.00;97247.19;4962012;28;20159;-61
2021/07/09 05:55:22;;;;;;;6.05;2.70;;;;;;;14.24;100.00;97246.56;4960808;28;20065;-62
2021/07/09 05:57:48;;;;;;;6.88;3.15;;;;;;;14.30;100.00;97261.59;4965143;28;20043;-61
2021/07/09 06:00:14;;;;;;;7.35;3.33;;;;;;;14.35;100.00;97250.25;4954593;28;20396;-62
2021/07/09 06:02:39;;;;;;;6.50;3.95;;;;;;;14.40;100.00;97266.41;4956726;28;20042;-61
2021/07/09 06:05:07;;;;;;;5.40;3.03;;;;;;;14.52;100.00;97263.38;4957817;28;20129;-63
2021/07/09 06:07:33;;;;;;;5.65;3.17;;;;;;;14.38;100.00;97263.25;4959684;28;20168;-63
2021/07/09 06:09:58;;;;;;;4.28;2.50;;;;;;;14.48;100.00;97264.53;4962391;28;20545;-60
2021/07/09 06:12:24;;;;;;;5.97;3.17;;;;;;;14.41;100.00;97272.75;4955503;28;20524;-62
2021/07/09 06:14:51;;;;;;;4.88;2.60;;;;;;;14.37;100.00;97266.38;4961497;28;20128;-63
2021/07/09 06:17:17;;;;;;;7.65;2.92;;;;;;;14.41;100.00;97268.00;4958321;28;20039;-61
2021/07/09 06:19:43;;;;;;;5.53;2.80;;;;;;;14.39;100.00;97273.13;4950582;28;20065;-60
2021/07/09 06:22:08;;;;;;;8.15;3.08;;;;;;;14.42;100.00;97272.38;4957230;28;20476;-62
2021/07/09 06:24:34;;;;;;;3.30;2.88;;;;;;;14.47;100.00;97272.00;4957020;28;20078;-61
2021/07/09 06:26:59;;;;;;;5.72;3.60;;;;;;;14.59;100.00;97284.75;4957056;28;20344;-61
2021/07/09 06:29:24;;;;;;;4.47;3.22;;;;;;;14.42;100.00;97282.56;4955148;28;20058;-60
2021/07/09 06:31:50;;;;;;;8.10;4.15;;;;;;;14.58;100.00;97285.13;4954968;28;20503;-62
2021/07/09 06:34:15;;;;;;;4.18;2.90;;;;;;;14.55;100.00;97289.41;4945493;28;20547;-61
2021/07/09 06:36:41;;;;;;;9.07;3.15;;;;;;;14.63;100.00;97280.06;4961683;28;20053;-62
2021/07/09 06:39:06;;;;;;;5.25;2.80;;;;;;;14.65;100.00;97287.97;4953489;28;20468;-62
2021/07/09 06:41:32;;;;;;;3.72;2.45;;;;;;;14.87;100.00;97286.19;4950536;28;20043;-62
2021/07/09 06:43:58;;;;;;;5.55;3.00;;;;;;;14.78;100.00;97282.97;4954734;28;20046;-63
2021/07/09 06:46:24;;;;;;;4.85;3.05;;;;;;;14.76;100.00;97293.56;4946245;28;20992;-61
2021/07/09 06:48:49;;;;;;;5.95;3.25;;;;;;;14.94;100.00;97291.75;4961670;28;20129;-61
2021/07/09 06:51:15;;;;;;;4.60;2.58;;;;;;;14.81;100.00;97288.50;4956415;28;20061;-63
2021/07/09 06:53:40;;;;;;;11.82;6.70;;;;;;;14.88;100.00;97293.28;4961622;28;20074;-62
2021/07/09 06:56:06;;;;;;;6.82;3.47;;;;;;;14.92;100.00;97285.84;4956628;28;20039;-62
2021/07/09 06:58:32;;;;;;;6.25;3.75;;;;;;;15.12;100.00;97288.38;4960284;28;20082;-61
2021/07/09 07:00:57;;;;;;;6.00;3.40;;;;;;;15.14;100.00;97291.53;4961495;28;20518;-59
2021/07/09 07:03:23;;;;;;;4.13;3.05;;;;;;;15.04;100.00;97293.81;4955076;28;20051;-63
2021/07/09 07:05:48;;;;;;;6.18;2.67;;;;;;;15.42;100.00;97300.03;4961475;28;20133;-63
2021/07/09 07:08:19;;;;;;;4.32;2.60;;;;;;;15.33;99.92;97294.03;4956040;28;20047;-63
2021/07/09 07:10:46;;;;;;;3.88;2.75;;;;;;;15.26;100.00;97294.78;4961292;28;20403;-63
2021/07/09 07:13:11;;;;;;;4.05;3.05;;;;;;;15.58;99.00;97298.94;4956325;28;20050;-64
2021/07/09 07:15:37;;;;;;;3.97;2.85;;;;;;;15.52;97.89;97294.94;4961369;28;20535;-62
2021/07/09 07:18:08;;;;;;;7.97;3.03;;;;;;;15.42;98.67;97305.53;4960677;28;20039;-64
2021/07/09 07:20:39;;;;;;;7.35;2.67;;;;;;;15.78;97.60;97299.50;4960172;28;20066;-62
2021/07/09 07:23:05;;;;;;;5.80;2.58;;;;;;;16.18;93.54;97300.44;4956299;28;20041;-64
2021/07/09 07:25:31;;;;;;;5.97;2.75;;;;;;;16.60;93.40;97301.75;4961431;28;20043;-63
2021/07/09 07:27:58;;;;;;;6.10;2.65;;;;;;;16.84;93.61;97305.78;4961483;28;20046;-63
2021/07/09 07:30:24;;;;;;;3.63;1.98;;;;;;;17.24;91.78;97308.59;4956434;28;20042;-63
2021/07/09 07:32:49;;;;;;;4.50;2.45;;;;;;;17.26;90.98;97311.75;4961263;28;20039;-64
2021/07/09 07:35:15;;;;;;;10.25;3.95;;;;;;;17.77;83.16;97311.28;4956578;28;20039;-61
2021/07/09 07:37:40;;;;;;;3.17;2.25;;;;;;;17.04;88.61;97308.97;4961704;28;20053;-62
2021/07/09 07:40:06;;;;;;;5.50;2.90;;;;;;;16.74;90.03;97304.53;4955968;28;20035;-62
2021/07/09 07:42:32;;;;;;;6.30;2.75;;;;;;;16.58;92.26;97309.66;4959793;28;20644;-63
2021/07/09 07:44:58;;;;;;;5.18;2.83;;;;;;;17.07;89.96;97310.97;4963327;28;20042;-61
2021/07/09 07:47:23;;;;;;;5.82;2.95;;;;;;;17.59;85.62;97316.03;4959410;28;20602;-62
2021/07/09 07:49:48;;;;;;;6.50;2.45;;;;;;;17.49;87.59;97314.09;4964534;28;20149;-64
2021/07/09 07:52:14;;;;;;;4.40;1.92;;;;;;;18.10;84.17;97317.53;4957727;28;20141;-62
2021/07/09 07:54:39;;;;;;;5.28;2.08;;;;;;;18.75;78.03;97322.78;4963034;28;20491;-63
2021/07/09 07:57:04;;;;;;;4.03;2.22;;;;;;;19.78;75.80;97320.41;4958933;28;20050;-64
2021/07/09 07:59:31;;;;;;;6.07;2.28;;;;;;;20.44;76.38;97313.69;4964432;28;20039;-63
2021/07/09 08:01:57;;;;;;;7.18;2.10;;;;;;;20.46;73.24;97313.28;4964557;28;20050;-64
2021/07/09 08:04:22;;;;;;;6.38;2.10;;;;;;;20.37;73.61;97301.88;4958746;28;20743;-64
2021/07/09 08:06:48;;;;;;;5.70;1.60;;;;;;;20.86;68.00;97316.31;4964263;28;20478;-62
2021/07/09 08:09:13;;;;;;;3.33;1.70;;;;;;;20.40;70.86;97312.16;4959281;28;20047;-62
2021/07/09 08:11:39;;;;;;;3.47;2.00;;;;;;;20.18;69.52;97317.97;4964473;28;20129;-63
2021/07/09 08:14:05;;;;;;;5.60;2.00;;;;;;;19.86;71.53;97316.38;4963101;28;20138;-64
2021/07/09 08:16:30;;;;;;;7.15;2.17;;;;;;;20.18;70.84;97319.97;4965238;28;20070;-65
2021/07/09 08:18:55;;;;;;;6.30;2.22;;;;;;;19.91;73.07;97317.88;4965098;28;20046;-64
2021/07/09 08:21:21;;;;;;;5.97;1.75;;;;;;;20.27;69.57;97316.69;4960089;28;21045;-64
2021/07/09 08:23:46;;;;;;;5.88;1.75;;;;;;;20.46;69.87;97315.28;4955220;28;20047;-65
2021/07/09 08:26:12;;;;;;;3.92;2.00;;;;;;;20.14;71.58;97313.69;4939671;28;20462;-63
2021/07/09 08:28:37;;;;;;;6.78;2.20;;;;;;;20.32;70.24;97307.91;4945334;28;20560;-62
2021/07/09 08:31:02;;;;;;;2.97;1.48;;;;;;;20.75;68.21;97315.69;4942361;28;20058;-64
2021/07/09 08:33:28;;;;;;;4.22;2.03;;;;;;;20.54;68.20;97308.41;4943069;28;20071;-62
2021/07/09 08:35:53;;;;;;;4.75;1.40;;;;;;;20.81;67.79;97316.78;4945218;28;20081;-63
2021/07/09 08:38:19;;;;;;;5.13;1.90;;;;;;;21.26;66.03;97315.72;4939767;28;20105;-59
2021/07/09 08:40:44;;;;;;;5.50;2.10;;;;;;;21.04;67.31;97318.84;4944490;28;20039;-63
2021/07/09 08:43:10;;;;;;;3.38;1.52;;;;;;;20.95;65.51;97324.94;4939240;28;20047;-64
2021/07/09 08:45:36;;;;;;;3.50;1.60;;;;;;;20.78;65.69;97323.22;4944642;28;20101;-63
2021/07/09 08:48:02;;;;;;;5.68;2.33;;;;;;;20.26;68.16;97329.81;4943969;28;20133;-65
2021/07/09 08:50:28;;;;;;;5.53;1.77;;;;;;;20.34;67.62;97330.50;4941460;28;20539;-62
2021/07/09 08:52:54;;;;;;;5.32;1.52;;;;;;;20.90;67.27;97328.19;4944687;28;20082;-64
2021/07/09 08:55:20;;;;;;;7.30;1.50;;;;;;;21.36;64.33;97323.13;4939262;28;20424;-61
2021/07/09 08:57:46;;;;;;;4.43;1.50;;;;;;;21.16;63.96;97340.53;4958210;28;20039;-63
2021/07/09 09:00:21;;;;;;;4.30;2.13;;;;;;;20.33;67.30;97337.28;4944641;28;20043;-62
2021/07/09 09:02:47;;;;;;;3.83;1.70;;;;;;;20.97;63.85;97336.44;4946875;28;20045;-63
2021/07/09 09:05:20;;;;;;;5.88;1.83;;;;;;;21.34;61.85;97336.69;4940925;28;20134;-63
2021/07/09 09:08:00;;;;;;;3.85;1.58;;;;;;;20.72;65.01;97339.56;4944822;28;20043;-60
2021/07/09 09:10:37;;;;;;;4.68;1.55;;;;;;;20.81;65.08;97344.63;4939453;28;20047;-63
2021/07/09 09:13:09;;;;;;;3.92;1.75;;;;;;;21.35;61.91;97347.38;4964830;23;20062;-63
2021/07/09 09:15:36;;;;;;;3.25;1.70;;;;;;;21.63;61.08;97345.38;4963442;28;20118;-66
2021/07/09 09:18:25;;;;;;;3.40;1.40;;;;;;;21.75;60.39;97341.19;4963115;28;20571;-65
2021/07/09 09:20:54;;;;;;;7.53;1.70;;;;;;;21.57;61.23;97333.94;4964295;28;20047;-66
2021/07/09 09:23:20;;;;;;;;;;;;;;;21.06;62.42;97343.50;4962606;28;20043;-65
2021/07/09 09:25:45;;;;;;;3.17;2.03;;;;;;;21.18;62.68;97337.34;4970756;28;19922;-63
2021/07/09 09:28:11;;;;;;;5.28;1.60;;;;;;;21.60;61.58;97342.66;4958765;28;20385;-66
2021/07/09 09:30:40;;;;;;;2.60;1.60;;;;;;;22.67;58.31;97334.22;4962183;28;20130;-65
2021/07/09 09:33:08;;;;;;;3.03;1.52;;;;;;;22.20;59.45;97328.78;4958351;28;20056;-64
2021/07/09 09:35:41;;;;;;;3.42;1.52;;;;;;;20.91;63.50;97329.78;4969468;28;20395;-64
2021/07/09 09:38:15;;;;;;;6.43;1.80;;;;;;;20.66;63.98;97337.69;4963569;28;20038;-64
2021/07/09 09:40:43;;;;;;;4.35;1.90;;;;;;;20.81;64.88;97331.53;4968174;28;20051;-64
2021/07/09 09:43:20;;;;;;;7.07;4.10;;;;;;;20.95;63.17;97330.50;4958967;28;20074;-65
2021/07/09 09:45:57;;;;;;;7.47;3.50;;;;;;;21.44;60.13;97327.34;4970395;28;20484;-65
2021/07/09 09:48:22;;;;;;;3.40;2.03;;;;;;;21.80;59.41;97328.75;4962714;28;20543;-64
2021/07/09 09:50:50;;;;;;;5.43;1.80;;;;;;;21.51;60.35;97330.03;4964157;28;20562;-64
2021/07/09 09:53:30;;;;;;;5.13;1.75;;;;;;;20.65;64.22;97333.31;4958448;28;20082;-65
2021/07/09 09:56:04;;;;;;;5.90;1.85;;;;;;;20.86;62.11;97330.25;4963838;28;20391;-64
2021/07/09 09:58:30;;;;;;;7.30;1.70;;;;;;;20.57;63.20;97327.03;4959269;28;20046;-64
2021/07/09 10:00:55;;;;;;;5.00;1.77;;;;;;;21.11;62.07;97323.53;4963472;28;20471;-64
2021/07/09 10:03:20;;;;;;;6.13;1.38;;;;;;;21.57;60.94;97325.56;4965413;28;20063;-63
2021/07/09 10:05:48;;;;;;;2.90;1.63;;;;;;;21.73;59.28;97315.72;4978871;28;20491;-65
2021/07/09 10:08:16;;;;;;;6.63;1.45;;;;;;;21.83;58.84;97327.91;4957658;28;20039;-63
2021/07/09 10:10:43;;;;;;;3.97;1.40;;;;;;;22.23;57.02;97314.00;4963885;28;20047;-65
2021/07/09 10:13:13;;;;;;;3.13;1.60;;;;;;;21.86;57.17;97310.31;4956805;28;20065;-65
2021/07/09 10:15:40;;;;;;;2.75;1.45;;;;;;;22.53;55.65;97315.78;4963229;28;20058;-63
2021/07/09 10:18:10;;;;;;;3.63;1.48;;;;;;;22.85;56.36;97320.66;4958610;28;20047;-65
2021/07/09 10:20:36;;;;;;;1.92;1.30;;;;;;;22.76;55.83;97309.31;4962078;28;20480;-65
2021/07/09 10:23:02;;;;;;;3.38;1.70;;;;;;;23.18;55.14;97314.38;4959925;28;20043;-62
2021/07/09 10:25:29;;;;;;;6.40;1.63;;;;;;;22.51;54.74;97319.00;4956505;28;20046;-63
2021/07/09 10:27:55;;;;;;;3.17;1.48;;;;;;;22.18;55.37;97311.69;4963067;28;20129;-63
2021/07/09 10:30:20;;;;;;;3.90;1.35;;;;;;;22.30;54.68;97309.06;4958063;28;20446;-65
2021/07/09 10:32:48;;;;;;;2.45;1.40;;;;;;;21.95;56.92;97304.97;4962519;28;20042;-64
2021/07/09 10:35:41;;;;;;;5.50;1.60;;;;;;;22.62;55.44;97307.63;4957684;28;20047;-63
2021/07/09 10:38:14;;;;;;;2.25;1.30;;;;;;;22.28;56.57;97300.34;4958231;28;20035;-64
2021/07/09 10:40:40;;;;;;;4.05;1.55;;;;;;;22.00;55.61;97310.03;4962076;28;20053;-64
2021/07/09 10:43:10;;;;;;;2.72;1.60;;;;;;;22.17;55.78;97304.56;4957373;28;20043;-65
2021/07/09 10:45:36;;;;;;;5.75;2.90;;;;;;;22.02;56.59;97302.06;4960905;28;20129;-63
2021/07/09 10:48:13;;;;;;;3.88;1.90;;;;;;;21.86;57.17;97293.59;4962720;28;20141;-63
2021/07/09 10:50:46;;;;;;;4.15;1.98;;;;;;;22.08;57.27;97300.31;4962681;28;20129;-64
2021/07/09 10:53:13;;;;;;;4.00;1.40;;;;;;;22.44;54.34;97302.41;4956429;28;20699;-64
2021/07/09 10:55:45;;;;;;;4.07;1.70;;;;;;;22.34;55.32;97306.22;4962927;28;20142;-64
2021/07/09 10:58:33;;;;;;;1.95;1.17;;;;;;;21.95;57.45;97305.75;4957461;28;20042;-64
2021/07/09 11:01:16;;;;;;;3.33;1.25;;;;;;;21.46;55.58;97304.66;4962559;28;20049;-64
2021/07/09 11:03:49;;;;;;;3.88;1.23;;;;;;;21.71;63.89;97312.59;4964250;28;20055;-65
2021/07/09 11:06:22;;;;;;;4.93;1.70;;;;;;;21.99;61.36;97313.28;4963317;28;20058;-65
2021/07/09 11:09:01;;;;;;;3.78;1.80;;;;;;;22.17;62.24;97313.72;4968259;28;20066;-64
2021/07/09 11:11:31;;;;;;;5.43;1.80;;;;;;;21.60;63.17;97315.56;4958992;28;20569;-65
2021/07/09 11:14:04;;;;;;;;;;;;;;;21.75;62.61;97319.69;4962608;28;20074;-64
2021/07/09 11:16:38;;;;;;;3.25;1.88;;;;;;;21.34;66.89;97317.19;4963370;28;19918;-64
2021/07/09 11:19:18;;;;;;;7.20;2.00;;;;;;;20.48;71.60;97313.63;4967380;28;20093;-63
2021/07/09 11:21:46;;;;;;;4.88;2.15;;;;;;;20.58;72.86;97298.81;4975785;28;20146;-66
2021/07/09 11:24:17;;;;;;;6.72;2.17;;;;;;;20.61;70.80;97297.19;4961772;28;20515;-65
2021/07/09 11:26:50;;;;;;;3.58;2.15;;;;;;;20.55;74.74;97294.06;4966717;28;20454;-65
2021/07/09 11:29:25;;;;;;;5.95;1.98;;;;;;;21.08;72.38;97282.59;4962715;28;20058;-65